sensor_id;sensor_type;location;lat;lon;timestamp;P1;durP1;ratioP1;P2;durP2;ratioP2
72949;SDS011;64868;45.710;9.590;2022-11-20T00:02:15;11.00;;;3.17;;
72949;SDS011;64868;45.710;9.590;2022-11-20T00:04:41;7.90;;;2.80;;
72949;SDS011;64868;45.710;9.590;2022-11-20T00:07:06;8.30;;;3.38;;
72949;SDS011;64868;45.710;9.590;2022-11-20T00:09:32;7.30;;;2.63;;
72949;SDS011;64868;45.710;9.590;2022-11-20T00:11:57;7.45;;;3.20;;
72949;SDS011;64868;45.710;9.590;2022-11-20T00:14:22;8.95;;;2.95;;
72949;SDS011;64868;45.710;9.590;2022-11-20T00:16:48;6.43;;;2.78;;
72949;SDS011;64868;45.710;9.590;2022-11-20T00:19:13;7.33;;;2.77;;
72949;SDS011;64868;45.710;9.590;2022-11-20T00:21:38;6.63;;;2.83;;
72949;SDS011;64868;45.710;9.590;2022-11-20T00:24:04;7.32;;;3.17;;
72949;SDS011;64868;45.710;9.590;2022-11-20T00:26:29;8.25;;;2.80;;
72949;SDS011;64868;45.710;9.590;2022-11-20T00:28:56;7.50;;;3.00;;
72949;SDS011;64868;45.710;9.590;2022-11-20T00:31:22;7.07;;;3.03;;
72949;SDS011;64868;45.710;9.590;2022-11-20T00:33:47;8.43;;;3.35;;
72949;SDS011;64868;45.710;9.590;2022-11-20T00:36:13;7.13;;;3.17;;
72949;SDS011;64868;45.710;9.590;2022-11-20T00:38:39;6.15;;;2.72;;
72949;SDS011;64868;45.710;9.590;2022-11-20T00:41:05;9.52;;;3.05;;
72949;SDS011;64868;45.710;9.590;2022-11-20T00:43:31;7.60;;;2.63;;
72949;SDS011;64868;45.710;9.590;2022-11-20T00:46:00;8.00;;;2.90;;
72949;SDS011;64868;45.710;9.590;2022-11-20T00:48:26;7.75;;;2.88;;
72949;SDS011;64868;45.710;9.590;2022-11-20T00:50:51;6.25;;;2.72;;
72949;SDS011;64868;45.710;9.590;2022-11-20T00:53:17;6.47;;;2.58;;
72949;SDS011;64868;45.710;9.590;2022-11-20T00:55:42;6.35;;;2.53;;
72949;SDS011;64868;45.710;9.590;2022-11-20T00:58:07;6.83;;;2.50;;
72949;SDS011;64868;45.710;9.590;2022-11-20T01:00:34;5.78;;;2.30;;
72949;SDS011;64868;45.710;9.590;2022-11-20T01:02:59;6.97;;;2.38;;
72949;SDS011;64868;45.710;9.590;2022-11-20T01:05:24;5.67;;;2.30;;
72949;SDS011;64868;45.710;9.590;2022-11-20T01:07:50;6.07;;;2.43;;
72949;SDS011;64868;45.710;9.590;2022-11-20T01:10:15;8.37;;;2.60;;
72949;SDS011;64868;45.710;9.590;2022-11-20T01:12:40;6.47;;;2.50;;
72949;SDS011;64868;45.710;9.590;2022-11-20T01:15:05;5.75;;;2.33;;
72949;SDS011;64868;45.710;9.590;2022-11-20T01:17:31;5.50;;;2.33;;
72949;SDS011;64868;45.710;9.590;2022-11-20T01:19:57;6.45;;;2.20;;
72949;SDS011;64868;45.710;9.590;2022-11-20T01:22:22;8.27;;;2.65;;
72949;SDS011;64868;45.710;9.590;2022-11-20T01:24:47;7.45;;;2.83;;
72949;SDS011;64868;45.710;9.590;2022-11-20T01:27:13;10.73;;;2.30;;
72949;SDS011;64868;45.710;9.590;2022-11-20T01:29:39;6.25;;;2.28;;
72949;SDS011;64868;45.710;9.590;2022-11-20T01:32:04;6.30;;;2.20;;
72949;SDS011;64868;45.710;9.590;2022-11-20T01:34:30;6.22;;;2.13;;
72949;SDS011;64868;45.710;9.590;2022-11-20T01:36:56;6.72;;;2.38;;
72949;SDS011;64868;45.710;9.590;2022-11-20T01:39:23;5.88;;;2.13;;
72949;SDS011;64868;45.710;9.590;2022-11-20T01:41:51;5.75;;;2.13;;
72949;SDS011;64868;45.710;9.590;2022-11-20T01:47:10;6.03;;;1.90;;
72949;SDS011;64868;45.710;9.590;2022-11-20T01:49:40;9.63;;;2.20;;
72949;SDS011;64868;45.710;9.590;2022-11-20T01:52:11;5.82;;;2.25;;
72949;SDS011;64868;45.710;9.590;2022-11-20T01:54:39;6.43;;;2.10;;
72949;SDS011;64868;45.710;9.590;2022-11-20T01:57:06;5.82;;;1.77;;
72949;SDS011;64868;45.710;9.590;2022-11-20T01:59:33;5.60;;;1.80;;
72949;SDS011;64868;45.710;9.590;2022-11-20T02:02:00;5.13;;;2.00;;
72949;SDS011;64868;45.710;9.590;2022-11-20T02:04:27;5.40;;;2.10;;
72949;SDS011;64868;45.710;9.590;2022-11-20T02:06:56;8.52;;;2.50;;
72949;SDS011;64868;45.710;9.590;2022-11-20T02:09:23;7.63;;;2.42;;
72949;SDS011;64868;45.710;9.590;2022-11-20T02:11:49;5.65;;;2.38;;
72949;SDS011;64868;45.710;9.590;2022-11-20T02:14:14;7.18;;;2.70;;
72949;SDS011;64868;45.710;9.590;2022-11-20T02:16:40;5.50;;;2.20;;
72949;SDS011;64868;45.710;9.590;2022-11-20T02:19:09;6.60;;;2.25;;
72949;SDS011;64868;45.710;9.590;2022-11-20T02:21:45;5.50;;;2.00;;
72949;SDS011;64868;45.710;9.590;2022-11-20T02:24:14;14.13;;;2.65;;
72949;SDS011;64868;45.710;9.590;2022-11-20T02:26:53;5.28;;;1.90;;
72949;SDS011;64868;45.710;9.590;2022-11-20T02:29:22;6.25;;;1.88;;
72949;SDS011;64868;45.710;9.590;2022-11-20T02:31:48;5.20;;;1.67;;
72949;SDS011;64868;45.710;9.590;2022-11-20T02:34:13;5.20;;;1.83;;
72949;SDS011;64868;45.710;9.590;2022-11-20T02:36:39;5.83;;;2.00;;
72949;SDS011;64868;45.710;9.590;2022-11-20T02:39:09;5.32;;;1.88;;
72949;SDS011;64868;45.710;9.590;2022-11-20T02:41:36;5.35;;;2.10;;
72949;SDS011;64868;45.710;9.590;2022-11-20T02:44:02;4.85;;;1.40;;
72949;SDS011;64868;45.710;9.590;2022-11-20T02:46:28;7.38;;;2.08;;
72949;SDS011;64868;45.710;9.590;2022-11-20T02:48:53;6.45;;;1.63;;
72949;SDS011;64868;45.710;9.590;2022-11-20T02:51:19;4.43;;;1.65;;
72949;SDS011;64868;45.710;9.590;2022-11-20T02:53:45;6.25;;;1.83;;
72949;SDS011;64868;45.710;9.590;2022-11-20T02:56:10;5.95;;;2.03;;
72949;SDS011;64868;45.710;9.590;2022-11-20T02:58:36;4.68;;;1.33;;
72949;SDS011;64868;45.710;9.590;2022-11-20T03:01:01;5.40;;;1.70;;
72949;SDS011;64868;45.710;9.590;2022-11-20T03:03:27;5.30;;;1.53;;
72949;SDS011;64868;45.710;9.590;2022-11-20T03:05:52;5.40;;;1.90;;
72949;SDS011;64868;45.710;9.590;2022-11-20T03:08:17;8.53;;;1.67;;
72949;SDS011;64868;45.710;9.590;2022-11-20T03:10:42;6.13;;;1.70;;
72949;SDS011;64868;45.710;9.590;2022-11-20T03:13:08;4.40;;;1.60;;
72949;SDS011;64868;45.710;9.590;2022-11-20T03:15:33;5.60;;;1.50;;
72949;SDS011;64868;45.710;9.590;2022-11-20T03:17:58;4.97;;;1.53;;
72949;SDS011;64868;45.710;9.590;2022-11-20T03:20:23;4.95;;;1.60;;
72949;SDS011;64868;45.710;9.590;2022-11-20T03:22:49;6.03;;;1.88;;
72949;SDS011;64868;45.710;9.590;2022-11-20T03:25:14;4.78;;;1.52;;
72949;SDS011;64868;45.710;9.590;2022-11-20T03:27:39;4.68;;;1.58;;
72949;SDS011;64868;45.710;9.590;2022-11-20T03:30:05;4.38;;;1.50;;
72949;SDS011;64868;45.710;9.590;2022-11-20T03:32:30;4.63;;;1.30;;
72949;SDS011;64868;45.710;9.590;2022-11-20T03:34:56;5.07;;;1.50;;
72949;SDS011;64868;45.710;9.590;2022-11-20T03:37:21;4.75;;;1.40;;
72949;SDS011;64868;45.710;9.590;2022-11-20T03:39:46;4.70;;;1.20;;
72949;SDS011;64868;45.710;9.590;2022-11-20T03:42:11;5.07;;;1.40;;
72949;SDS011;64868;45.710;9.590;2022-11-20T03:45:18;4.97;;;1.65;;
72949;SDS011;64868;45.710;9.590;2022-11-20T03:47:43;5.10;;;1.63;;
72949;SDS011;64868;45.710;9.590;2022-11-20T03:50:09;4.82;;;1.50;;
72949;SDS011;64868;45.710;9.590;2022-11-20T03:52:35;5.57;;;1.58;;
72949;SDS011;64868;45.710;9.590;2022-11-20T03:55:00;4.00;;;1.30;;
72949;SDS011;64868;45.710;9.590;2022-11-20T03:57:26;5.05;;;1.65;;
72949;SDS011;64868;45.710;9.590;2022-11-20T03:59:51;3.97;;;1.17;;
72949;SDS011;64868;45.710;9.590;2022-11-20T04:02:16;3.50;;;1.17;;
72949;SDS011;64868;45.710;9.590;2022-11-20T04:04:41;4.27;;;1.10;;
72949;SDS011;64868;45.710;9.590;2022-11-20T04:07:07;4.57;;;1.30;;
72949;SDS011;64868;45.710;9.590;2022-11-20T04:09:33;3.92;;;1.30;;
72949;SDS011;64868;45.710;9.590;2022-11-20T04:11:58;3.97;;;1.20;;
72949;SDS011;64868;45.710;9.590;2022-11-20T04:14:23;4.35;;;1.08;;
72949;SDS011;64868;45.710;9.590;2022-11-20T04:16:48;4.33;;;1.20;;
72949;SDS011;64868;45.710;9.590;2022-11-20T04:19:14;4.70;;;1.30;;
72949;SDS011;64868;45.710;9.590;2022-11-20T04:21:40;3.80;;;1.23;;
72949;SDS011;64868;45.710;9.590;2022-11-20T04:24:05;4.38;;;1.50;;
72949;SDS011;64868;45.710;9.590;2022-11-20T04:26:31;3.67;;;1.08;;
72949;SDS011;64868;45.710;9.590;2022-11-20T04:28:56;3.35;;;1.00;;
72949;SDS011;64868;45.710;9.590;2022-11-20T04:31:23;3.50;;;0.93;;
72949;SDS011;64868;45.710;9.590;2022-11-20T04:33:49;4.13;;;1.00;;
72949;SDS011;64868;45.710;9.590;2022-11-20T04:36:15;3.38;;;1.10;;
72949;SDS011;64868;45.710;9.590;2022-11-20T04:38:41;5.25;;;1.35;;
72949;SDS011;64868;45.710;9.590;2022-11-20T04:41:06;3.90;;;0.90;;
72949;SDS011;64868;45.710;9.590;2022-11-20T04:43:32;3.80;;;1.10;;
72949;SDS011;64868;45.710;9.590;2022-11-20T04:45:58;3.20;;;0.80;;
72949;SDS011;64868;45.710;9.590;2022-11-20T04:48:24;5.13;;;0.90;;
72949;SDS011;64868;45.710;9.590;2022-11-20T04:50:49;3.45;;;1.00;;
72949;SDS011;64868;45.710;9.590;2022-11-20T04:53:15;5.32;;;0.70;;
72949;SDS011;64868;45.710;9.590;2022-11-20T04:55:40;3.65;;;1.00;;
72949;SDS011;64868;45.710;9.590;2022-11-20T04:58:05;3.03;;;0.90;;
72949;SDS011;64868;45.710;9.590;2022-11-20T05:00:31;3.50;;;1.15;;
72949;SDS011;64868;45.710;9.590;2022-11-20T05:02:56;4.00;;;0.93;;
72949;SDS011;64868;45.710;9.590;2022-11-20T05:05:21;5.53;;;1.13;;
72949;SDS011;64868;45.710;9.590;2022-11-20T05:07:47;3.60;;;1.00;;
72949;SDS011;64868;45.710;9.590;2022-11-20T05:10:12;2.90;;;1.00;;
72949;SDS011;64868;45.710;9.590;2022-11-20T05:12:41;4.40;;;1.35;;
72949;SDS011;64868;45.710;9.590;2022-11-20T05:15:06;3.42;;;0.90;;
72949;SDS011;64868;45.710;9.590;2022-11-20T05:17:31;3.88;;;1.10;;
72949;SDS011;64868;45.710;9.590;2022-11-20T05:19:56;2.73;;;0.60;;
72949;SDS011;64868;45.710;9.590;2022-11-20T05:22:22;3.67;;;0.90;;
72949;SDS011;64868;45.710;9.590;2022-11-20T05:24:47;3.40;;;1.10;;
72949;SDS011;64868;45.710;9.590;2022-11-20T05:27:12;3.13;;;1.10;;
72949;SDS011;64868;45.710;9.590;2022-11-20T05:29:38;4.63;;;1.10;;
72949;SDS011;64868;45.710;9.590;2022-11-20T05:32:03;2.90;;;0.90;;
72949;SDS011;64868;45.710;9.590;2022-11-20T05:34:30;3.03;;;0.90;;
72949;SDS011;64868;45.710;9.590;2022-11-20T05:36:55;4.13;;;0.90;;
72949;SDS011;64868;45.710;9.590;2022-11-20T05:39:20;4.83;;;1.00;;
72949;SDS011;64868;45.710;9.590;2022-11-20T05:41:46;2.28;;;0.80;;
72949;SDS011;64868;45.710;9.590;2022-11-20T05:44:31;3.80;;;1.05;;
72949;SDS011;64868;45.710;9.590;2022-11-20T05:46:56;2.63;;;0.80;;
72949;SDS011;64868;45.710;9.590;2022-11-20T05:49:21;3.87;;;1.30;;
72949;SDS011;64868;45.710;9.590;2022-11-20T05:51:47;2.73;;;0.80;;
72949;SDS011;64868;45.710;9.590;2022-11-20T05:54:12;4.80;;;0.80;;
72949;SDS011;64868;45.710;9.590;2022-11-20T05:56:38;3.78;;;0.95;;
72949;SDS011;64868;45.710;9.590;2022-11-20T05:59:03;3.23;;;1.03;;
72949;SDS011;64868;45.710;9.590;2022-11-20T06:01:28;2.33;;;0.80;;
72949;SDS011;64868;45.710;9.590;2022-11-20T06:03:54;3.10;;;1.00;;
72949;SDS011;64868;45.710;9.590;2022-11-20T06:06:19;2.97;;;0.88;;
72949;SDS011;64868;45.710;9.590;2022-11-20T06:08:44;5.20;;;1.00;;
72949;SDS011;64868;45.710;9.590;2022-11-20T06:11:11;2.63;;;0.70;;
72949;SDS011;64868;45.710;9.590;2022-11-20T06:13:36;2.63;;;0.80;;
72949;SDS011;64868;45.710;9.590;2022-11-20T06:16:02;3.00;;;0.90;;
72949;SDS011;64868;45.710;9.590;2022-11-20T06:18:27;4.20;;;0.95;;
72949;SDS011;64868;45.710;9.590;2022-11-20T06:21:05;2.78;;;0.70;;
72949;SDS011;64868;45.710;9.590;2022-11-20T06:23:31;3.13;;;0.80;;
72949;SDS011;64868;45.710;9.590;2022-11-20T06:25:56;3.28;;;0.93;;
72949;SDS011;64868;45.710;9.590;2022-11-20T06:28:22;5.45;;;1.38;;
72949;SDS011;64868;45.710;9.590;2022-11-20T06:30:47;2.67;;;0.70;;
72949;SDS011;64868;45.710;9.590;2022-11-20T06:33:12;2.85;;;0.65;;
72949;SDS011;64868;45.710;9.590;2022-11-20T06:35:37;6.53;;;1.02;;
72949;SDS011;64868;45.710;9.590;2022-11-20T06:38:03;4.00;;;1.00;;
72949;SDS011;64868;45.710;9.590;2022-11-20T06:40:28;4.05;;;1.10;;
72949;SDS011;64868;45.710;9.590;2022-11-20T06:42:53;5.67;;;1.10;;
72949;SDS011;64868;45.710;9.590;2022-11-20T06:45:19;4.32;;;1.00;;
72949;SDS011;64868;45.710;9.590;2022-11-20T06:47:45;4.50;;;1.08;;
72949;SDS011;64868;45.710;9.590;2022-11-20T06:50:10;5.77;;;1.03;;
72949;SDS011;64868;45.710;9.590;2022-11-20T06:52:35;6.80;;;1.00;;
72949;SDS011;64868;45.710;9.590;2022-11-20T06:55:00;4.17;;;0.90;;
72949;SDS011;64868;45.710;9.590;2022-11-20T06:57:25;3.03;;;0.87;;
72949;SDS011;64868;45.710;9.590;2022-11-20T06:59:51;3.93;;;1.10;;
72949;SDS011;64868;45.710;9.590;2022-11-20T07:02:16;3.17;;;0.80;;
72949;SDS011;64868;45.710;9.590;2022-11-20T07:04:41;3.28;;;0.70;;
72949;SDS011;64868;45.710;9.590;2022-11-20T07:07:06;3.05;;;0.80;;
72949;SDS011;64868;45.710;9.590;2022-11-20T07:09:32;3.50;;;1.00;;
72949;SDS011;64868;45.710;9.590;2022-11-20T07:11:58;3.85;;;0.90;;
72949;SDS011;64868;45.710;9.590;2022-11-20T07:14:23;4.07;;;1.10;;
72949;SDS011;64868;45.710;9.590;2022-11-20T07:16:49;5.10;;;1.73;;
72949;SDS011;64868;45.710;9.590;2022-11-20T07:19:14;3.95;;;1.40;;
72949;SDS011;64868;45.710;9.590;2022-11-20T07:21:40;4.68;;;1.30;;
72949;SDS011;64868;45.710;9.590;2022-11-20T07:24:05;4.50;;;1.10;;
72949;SDS011;64868;45.710;9.590;2022-11-20T07:26:30;4.22;;;1.38;;
72949;SDS011;64868;45.710;9.590;2022-11-20T07:28:55;3.73;;;1.13;;
72949;SDS011;64868;45.710;9.590;2022-11-20T07:31:21;3.77;;;1.40;;
72949;SDS011;64868;45.710;9.590;2022-11-20T07:33:46;3.35;;;1.20;;
72949;SDS011;64868;45.710;9.590;2022-11-20T07:36:11;3.67;;;1.10;;
72949;SDS011;64868;45.710;9.590;2022-11-20T07:38:37;3.97;;;1.20;;
72949;SDS011;64868;45.710;9.590;2022-11-20T07:41:02;5.43;;;1.02;;
72949;SDS011;64868;45.710;9.590;2022-11-20T07:43:28;4.00;;;1.08;;
72949;SDS011;64868;45.710;9.590;2022-11-20T07:45:56;4.65;;;1.10;;
72949;SDS011;64868;45.710;9.590;2022-11-20T07:51:16;3.40;;;1.10;;
72949;SDS011;64868;45.710;9.590;2022-11-20T07:53:51;3.65;;;1.08;;
72949;SDS011;64868;45.710;9.590;2022-11-20T07:56:25;3.47;;;1.10;;
72949;SDS011;64868;45.710;9.590;2022-11-20T07:58:50;3.33;;;0.80;;
72949;SDS011;64868;45.710;9.590;2022-11-20T08:01:16;3.60;;;1.00;;
72949;SDS011;64868;45.710;9.590;2022-11-20T08:03:41;3.38;;;0.95;;
72949;SDS011;64868;45.710;9.590;2022-11-20T08:06:12;6.45;;;1.10;;
72949;SDS011;64868;45.710;9.590;2022-11-20T08:08:38;3.70;;;1.10;;
72949;SDS011;64868;45.710;9.590;2022-11-20T08:11:04;3.35;;;1.15;;
72949;SDS011;64868;45.710;9.590;2022-11-20T08:14:01;3.28;;;1.05;;
72949;SDS011;64868;45.710;9.590;2022-11-20T08:16:40;4.55;;;1.33;;
72949;SDS011;64868;45.710;9.590;2022-11-20T08:19:06;5.05;;;1.30;;
72949;SDS011;64868;45.710;9.590;2022-11-20T08:21:31;3.88;;;1.25;;
72949;SDS011;64868;45.710;9.590;2022-11-20T08:23:57;4.30;;;1.30;;
72949;SDS011;64868;45.710;9.590;2022-11-20T08:26:22;4.47;;;1.30;;
72949;SDS011;64868;45.710;9.590;2022-11-20T08:28:48;4.35;;;1.23;;
72949;SDS011;64868;45.710;9.590;2022-11-20T08:31:13;4.07;;;1.00;;
72949;SDS011;64868;45.710;9.590;2022-11-20T08:33:38;5.10;;;1.15;;
72949;SDS011;64868;45.710;9.590;2022-11-20T08:36:04;6.00;;;1.60;;
72949;SDS011;64868;45.710;9.590;2022-11-20T08:38:30;4.82;;;1.70;;
72949;SDS011;64868;45.710;9.590;2022-11-20T08:40:56;3.58;;;1.20;;
72949;SDS011;64868;45.710;9.590;2022-11-20T08:43:40;4.50;;;1.10;;
72949;SDS011;64868;45.710;9.590;2022-11-20T08:46:05;4.27;;;1.47;;
72949;SDS011;64868;45.710;9.590;2022-11-20T08:48:30;3.77;;;1.30;;
72949;SDS011;64868;45.710;9.590;2022-11-20T08:50:57;4.13;;;1.30;;
72949;SDS011;64868;45.710;9.590;2022-11-20T08:53:22;6.90;;;1.25;;
72949;SDS011;64868;45.710;9.590;2022-11-20T08:55:47;4.35;;;1.27;;
72949;SDS011;64868;45.710;9.590;2022-11-20T08:58:13;3.80;;;1.30;;
72949;SDS011;64868;45.710;9.590;2022-11-20T09:00:38;3.97;;;1.00;;
72949;SDS011;64868;45.710;9.590;2022-11-20T09:03:03;4.50;;;1.40;;
72949;SDS011;64868;45.710;9.590;2022-11-20T09:05:28;8.97;;;1.27;;
72949;SDS011;64868;45.710;9.590;2022-11-20T09:07:57;3.58;;;1.17;;
72949;SDS011;64868;45.710;9.590;2022-11-20T09:10:22;4.90;;;1.30;;
72949;SDS011;64868;45.710;9.590;2022-11-20T09:12:51;8.67;;;2.10;;
72949;SDS011;64868;45.710;9.590;2022-11-20T09:15:17;6.85;;;1.63;;
72949;SDS011;64868;45.710;9.590;2022-11-20T09:17:42;6.10;;;2.00;;
72949;SDS011;64868;45.710;9.590;2022-11-20T09:20:14;5.78;;;2.28;;
72949;SDS011;64868;45.710;9.590;2022-11-20T09:22:41;5.15;;;2.13;;
72949;SDS011;64868;45.710;9.590;2022-11-20T09:25:06;6.10;;;1.93;;
72949;SDS011;64868;45.710;9.590;2022-11-20T09:27:31;4.70;;;1.48;;
72949;SDS011;64868;45.710;9.590;2022-11-20T09:29:57;5.20;;;1.70;;
72949;SDS011;64868;45.710;9.590;2022-11-20T09:32:22;5.70;;;1.40;;
72949;SDS011;64868;45.710;9.590;2022-11-20T09:34:47;3.80;;;1.50;;
72949;SDS011;64868;45.710;9.590;2022-11-20T09:37:12;4.47;;;1.23;;
72949;SDS011;64868;45.710;9.590;2022-11-20T09:39:37;3.70;;;1.30;;
72949;SDS011;64868;45.710;9.590;2022-11-20T09:42:23;4.55;;;1.52;;
72949;SDS011;64868;45.710;9.590;2022-11-20T09:50:07;5.60;;;1.70;;
72949;SDS011;64868;45.710;9.590;2022-11-20T09:57:37;5.27;;;2.10;;
72949;SDS011;64868;45.710;9.590;2022-11-20T10:00:03;5.78;;;2.17;;
72949;SDS011;64868;45.710;9.590;2022-11-20T10:02:43;8.20;;;2.47;;
72949;SDS011;64868;45.710;9.590;2022-11-20T10:05:30;5.60;;;2.08;;
72949;SDS011;64868;45.710;9.590;2022-11-20T10:08:05;4.63;;;1.80;;
72949;SDS011;64868;45.710;9.590;2022-11-20T10:10:35;6.60;;;2.00;;
72949;SDS011;64868;45.710;9.590;2022-11-20T10:13:17;7.88;;;2.25;;
72949;SDS011;64868;45.710;9.590;2022-11-20T10:15:53;5.22;;;2.42;;
72949;SDS011;64868;45.710;9.590;2022-11-20T10:21:23;5.40;;;2.72;;
72949;SDS011;64868;45.710;9.590;2022-11-20T10:31:37;5.25;;;2.90;;
72949;SDS011;64868;45.710;9.590;2022-11-20T10:36:56;8.57;;;5.50;;
72949;SDS011;64868;45.710;9.590;2022-11-20T10:41:54;6.40;;;2.95;;
72949;SDS011;64868;45.710;9.590;2022-11-20T10:44:21;7.80;;;2.97;;
72949;SDS011;64868;45.710;9.590;2022-11-20T10:47:11;6.93;;;2.95;;
72949;SDS011;64868;45.710;9.590;2022-11-20T10:49:37;6.55;;;2.97;;
72949;SDS011;64868;45.710;9.590;2022-11-20T10:59:48;6.03;;;2.33;;
72949;SDS011;64868;45.710;9.590;2022-11-20T11:04:45;6.13;;;2.08;;
72949;SDS011;64868;45.710;9.590;2022-11-20T11:07:30;5.55;;;2.58;;
72949;SDS011;64868;45.710;9.590;2022-11-20T11:09:58;5.38;;;2.30;;
72949;SDS011;64868;45.710;9.590;2022-11-20T11:12:24;6.82;;;2.50;;
72949;SDS011;64868;45.710;9.590;2022-11-20T11:14:51;4.80;;;2.13;;
72949;SDS011;64868;45.710;9.590;2022-11-20T11:22:27;5.60;;;2.60;;
72949;SDS011;64868;45.710;9.590;2022-11-20T11:24:53;6.85;;;2.33;;
72949;SDS011;64868;45.710;9.590;2022-11-20T11:27:19;6.03;;;3.05;;
72949;SDS011;64868;45.710;9.590;2022-11-20T11:29:45;5.55;;;2.58;;
72949;SDS011;64868;45.710;9.590;2022-11-20T11:32:12;6.10;;;2.90;;
72949;SDS011;64868;45.710;9.590;2022-11-20T11:34:38;7.68;;;2.97;;
72949;SDS011;64868;45.710;9.590;2022-11-20T11:37:09;5.82;;;2.42;;
72949;SDS011;64868;45.710;9.590;2022-11-20T11:39:36;6.80;;;2.83;;
72949;SDS011;64868;45.710;9.590;2022-11-20T11:42:03;6.47;;;2.92;;
72949;SDS011;64868;45.710;9.590;2022-11-20T11:44:33;6.20;;;2.42;;
72949;SDS011;64868;45.710;9.590;2022-11-20T11:47:31;6.40;;;2.72;;
72949;SDS011;64868;45.710;9.590;2022-11-20T11:52:28;8.48;;;2.50;;
72949;SDS011;64868;45.710;9.590;2022-11-20T11:54:57;6.45;;;2.50;;
72949;SDS011;64868;45.710;9.590;2022-11-20T12:05:04;4.82;;;1.95;;
72949;SDS011;64868;45.710;9.590;2022-11-20T12:07:40;5.72;;;2.10;;
72949;SDS011;64868;45.710;9.590;2022-11-20T12:10:12;5.53;;;2.13;;
72949;SDS011;64868;45.710;9.590;2022-11-20T12:12:40;6.10;;;2.20;;
72949;SDS011;64868;45.710;9.590;2022-11-20T12:15:09;6.13;;;2.10;;
72949;SDS011;64868;45.710;9.590;2022-11-20T12:17:36;5.80;;;2.28;;
72949;SDS011;64868;45.710;9.590;2022-11-20T12:20:01;5.53;;;2.23;;
72949;SDS011;64868;45.710;9.590;2022-11-20T12:25:21;6.68;;;2.10;;
72949;SDS011;64868;45.710;9.590;2022-11-20T12:30:22;6.45;;;2.08;;
72949;SDS011;64868;45.710;9.590;2022-11-20T12:33:08;5.57;;;1.75;;
72949;SDS011;64868;45.710;9.590;2022-11-20T12:40:44;6.47;;;2.03;;
72949;SDS011;64868;45.710;9.590;2022-11-20T12:43:25;8.18;;;2.00;;
72949;SDS011;64868;45.710;9.590;2022-11-20T12:54:10;6.18;;;1.67;;
72949;SDS011;64868;45.710;9.590;2022-11-20T12:59:27;5.55;;;1.80;;
72949;SDS011;64868;45.710;9.590;2022-11-20T13:02:01;7.03;;;1.83;;
72949;SDS011;64868;45.710;9.590;2022-11-20T13:07:13;5.72;;;2.15;;
72949;SDS011;64868;45.710;9.590;2022-11-20T13:09:43;4.88;;;1.70;;
72949;SDS011;64868;45.710;9.590;2022-11-20T13:12:30;5.90;;;2.30;;
72949;SDS011;64868;45.710;9.590;2022-11-20T13:17:24;5.60;;;2.30;;
72949;SDS011;64868;45.710;9.590;2022-11-20T13:19:54;6.57;;;2.28;;
72949;SDS011;64868;45.710;9.590;2022-11-20T13:22:27;7.75;;;2.50;;
72949;SDS011;64868;45.710;9.590;2022-11-20T13:24:52;5.38;;;2.17;;
72949;SDS011;64868;45.710;9.590;2022-11-20T13:27:19;6.28;;;2.38;;
72949;SDS011;64868;45.710;9.590;2022-11-20T13:29:46;6.10;;;2.40;;
72949;SDS011;64868;45.710;9.590;2022-11-20T13:34:37;6.73;;;2.90;;
72949;SDS011;64868;45.710;9.590;2022-11-20T13:37:02;7.32;;;3.05;;
72949;SDS011;64868;45.710;9.590;2022-11-20T13:39:32;7.80;;;3.50;;
72949;SDS011;64868;45.710;9.590;2022-11-20T13:41:59;7.93;;;3.70;;
72949;SDS011;64868;45.710;9.590;2022-11-20T13:44:25;6.75;;;3.15;;
72949;SDS011;64868;45.710;9.590;2022-11-20T13:46:51;7.80;;;3.28;;
72949;SDS011;64868;45.710;9.590;2022-11-20T13:54:15;6.53;;;3.15;;
72949;SDS011;64868;45.710;9.590;2022-11-20T13:59:11;6.80;;;3.08;;
72949;SDS011;64868;45.710;9.590;2022-11-20T14:01:39;8.23;;;3.63;;
72949;SDS011;64868;45.710;9.590;2022-11-20T14:04:08;8.50;;;4.00;;
72949;SDS011;64868;45.710;9.590;2022-11-20T14:08:59;10.90;;;6.38;;
72949;SDS011;64868;45.710;9.590;2022-11-20T14:11:26;12.57;;;7.82;;
72949;SDS011;64868;45.710;9.590;2022-11-20T14:16:23;8.20;;;4.50;;
72949;SDS011;64868;45.710;9.590;2022-11-20T14:18:49;8.35;;;4.38;;
72949;SDS011;64868;45.710;9.590;2022-11-20T14:21:21;7.00;;;3.70;;
72949;SDS011;64868;45.710;9.590;2022-11-20T14:23:47;7.22;;;2.90;;
72949;SDS011;64868;45.710;9.590;2022-11-20T14:26:14;7.90;;;3.75;;
72949;SDS011;64868;45.710;9.590;2022-11-20T14:28:41;6.80;;;3.47;;
72949;SDS011;64868;45.710;9.590;2022-11-20T14:31:09;12.45;;;4.00;;
72949;SDS011;64868;45.710;9.590;2022-11-20T14:33:42;7.93;;;3.28;;
72949;SDS011;64868;45.710;9.590;2022-11-20T14:36:16;8.00;;;3.85;;
72949;SDS011;64868;45.710;9.590;2022-11-20T14:39:09;9.20;;;3.88;;
72949;SDS011;64868;45.710;9.590;2022-11-20T14:42:03;7.25;;;3.67;;
72949;SDS011;64868;45.710;9.590;2022-11-20T14:44:54;7.78;;;3.65;;
72949;SDS011;64868;45.710;9.590;2022-11-20T14:47:44;13.30;;;4.15;;
72949;SDS011;64868;45.710;9.590;2022-11-20T14:50:18;10.07;;;4.28;;
72949;SDS011;64868;45.710;9.590;2022-11-20T14:52:50;8.00;;;3.78;;
72949;SDS011;64868;45.710;9.590;2022-11-20T14:55:24;8.75;;;4.75;;
72949;SDS011;64868;45.710;9.590;2022-11-20T14:57:55;9.20;;;4.65;;
72949;SDS011;64868;45.710;9.590;2022-11-20T15:00:21;7.97;;;4.40;;
72949;SDS011;64868;45.710;9.590;2022-11-20T15:02:47;8.35;;;4.40;;
72949;SDS011;64868;45.710;9.590;2022-11-20T15:05:14;11.07;;;5.57;;
72949;SDS011;64868;45.710;9.590;2022-11-20T15:07:50;11.25;;;5.68;;
72949;SDS011;64868;45.710;9.590;2022-11-20T15:12:49;10.60;;;5.40;;
72949;SDS011;64868;45.710;9.590;2022-11-20T15:15:16;10.95;;;5.95;;
72949;SDS011;64868;45.710;9.590;2022-11-20T15:17:44;9.85;;;5.45;;
72949;SDS011;64868;45.710;9.590;2022-11-20T15:20:13;10.45;;;5.80;;
72949;SDS011;64868;45.710;9.590;2022-11-20T15:22:39;11.95;;;6.10;;
72949;SDS011;64868;45.710;9.590;2022-11-20T15:25:11;10.98;;;5.82;;
72949;SDS011;64868;45.710;9.590;2022-11-20T15:27:36;12.73;;;6.38;;
72949;SDS011;64868;45.710;9.590;2022-11-20T15:30:01;12.30;;;6.20;;
72949;SDS011;64868;45.710;9.590;2022-11-20T15:32:27;11.35;;;6.28;;
72949;SDS011;64868;45.710;9.590;2022-11-20T15:34:52;10.60;;;6.33;;
72949;SDS011;64868;45.710;9.590;2022-11-20T15:37:17;12.83;;;6.97;;
72949;SDS011;64868;45.710;9.590;2022-11-20T15:39:42;12.70;;;7.50;;
72949;SDS011;64868;45.710;9.590;2022-11-20T15:42:07;13.93;;;7.70;;
72949;SDS011;64868;45.710;9.590;2022-11-20T15:44:33;12.23;;;6.53;;
72949;SDS011;64868;45.710;9.590;2022-11-20T15:46:58;13.45;;;6.78;;
72949;SDS011;64868;45.710;9.590;2022-11-20T15:49:23;12.63;;;6.47;;
72949;SDS011;64868;45.710;9.590;2022-11-20T15:51:50;12.02;;;6.70;;
72949;SDS011;64868;45.710;9.590;2022-11-20T15:54:18;17.00;;;8.45;;
72949;SDS011;64868;45.710;9.590;2022-11-20T15:56:45;12.93;;;7.13;;
72949;SDS011;64868;45.710;9.590;2022-11-20T15:59:10;13.98;;;7.95;;
72949;SDS011;64868;45.710;9.590;2022-11-20T16:01:36;13.40;;;8.00;;
72949;SDS011;64868;45.710;9.590;2022-11-20T16:04:01;12.65;;;7.30;;
72949;SDS011;64868;45.710;9.590;2022-11-20T16:06:26;13.88;;;7.85;;
72949;SDS011;64868;45.710;9.590;2022-11-20T16:08:52;17.98;;;7.50;;
72949;SDS011;64868;45.710;9.590;2022-11-20T16:11:17;16.20;;;7.70;;
72949;SDS011;64868;45.710;9.590;2022-11-20T16:13:43;14.30;;;6.63;;
72949;SDS011;64868;45.710;9.590;2022-11-20T16:16:28;13.77;;;5.85;;
72949;SDS011;64868;45.710;9.590;2022-11-20T16:18:55;13.00;;;5.75;;
72949;SDS011;64868;45.710;9.590;2022-11-20T16:21:21;11.88;;;6.45;;
72949;SDS011;64868;45.710;9.590;2022-11-20T16:23:52;13.95;;;6.50;;
72949;SDS011;64868;45.710;9.590;2022-11-20T16:26:17;12.50;;;6.35;;
72949;SDS011;64868;45.710;9.590;2022-11-20T16:28:43;12.70;;;7.05;;
72949;SDS011;64868;45.710;9.590;2022-11-20T16:31:09;12.32;;;7.03;;